sensor_id;sensor_type;location;lat;lon;timestamp;pressure;altitude;pressure_sealevel;temperature;humidity
70343;BME280;57767;42.068;24.752;2023-12-28T00:00:50;99966.25;;;7.46;47.47
70343;BME280;57767;42.068;24.752;2023-12-28T00:01:51;99962.59;;;7.39;47.65
70343;BME280;57767;42.068;24.752;2023-12-28T00:02:53;99963.72;;;7.29;47.86
70343;BME280;57767;42.068;24.752;2023-12-28T00:03:55;99967.34;;;7.36;48.00
70343;BME280;57767;42.068;24.752;2023-12-28T00:04:56;99935.13;;;7.17;48.24
70343;BME280;57767;42.068;24.752;2023-12-28T00:05:58;99972.13;;;7.32;48.08
70343;BME280;57767;42.068;24.752;2023-12-28T00:07:02;99966.16;;;7.22;48.41
70343;BME280;57767;42.068;24.752;2023-12-28T00:08:04;99970.09;;;7.18;48.46
70343;BME280;57767;42.068;24.752;2023-12-28T00:09:06;99967.47;;;7.18;48.32
70343;BME280;57767;42.068;24.752;2023-12-28T00:10:12;99972.75;;;7.26;48.59
70343;BME280;57767;42.068;24.752;2023-12-28T00:11:14;99964.84;;;7.18;49.38
70343;BME280;57767;42.068;24.752;2023-12-28T00:12:16;99965.00;;;7.16;49.32
70343;BME280;57767;42.068;24.752;2023-12-28T00:13:17;99968.28;;;7.18;48.76
70343;BME280;57767;42.068;24.752;2023-12-28T00:14:19;99970.75;;;7.20;48.92
70343;BME280;57767;42.068;24.752;2023-12-28T00:15:21;99972.22;;;7.23;49.63
70343;BME280;57767;42.068;24.752;2023-12-28T00:16:23;99972.88;;;7.16;49.69
70343;BME280;57767;42.068;24.752;2023-12-28T00:17:25;99975.00;;;7.13;49.96
70343;BME280;57767;42.068;24.752;2023-12-28T00:18:26;99967.75;;;7.07;50.33
70343;BME280;57767;42.068;24.752;2023-12-28T00:19:28;99968.06;;;7.04;50.14
70343;BME280;57767;42.068;24.752;2023-12-28T00:20:30;99972.34;;;7.05;49.91
70343;BME280;57767;42.068;24.752;2023-12-28T00:21:31;99978.75;;;7.10;50.03
70343;BME280;57767;42.068;24.752;2023-12-28T00:22:33;99982.53;;;7.08;50.47
70343;BME280;57767;42.068;24.752;2023-12-28T00:23:35;99981.50;;;7.01;50.15
70343;BME280;57767;42.068;24.752;2023-12-28T00:24:36;99980.22;;;7.05;49.92
70343;BME280;57767;42.068;24.752;2023-12-28T00:25:38;99990.41;;;7.08;50.57
70343;BME280;57767;42.068;24.752;2023-12-28T00:26:39;99986.44;;;7.04;50.11
70343;BME280;57767;42.068;24.752;2023-12-28T00:27:41;99991.84;;;7.02;49.79
70343;BME280;57767;42.068;24.752;2023-12-28T00:28:43;100002.19;;;7.04;50.49
70343;BME280;57767;42.068;24.752;2023-12-28T00:29:45;99997.78;;;7.04;50.59
70343;BME280;57767;42.068;24.752;2023-12-28T00:30:46;99999.13;;;7.08;50.36
70343;BME280;57767;42.068;24.752;2023-12-28T00:31:48;100011.75;;;7.13;50.12
70343;BME280;57767;42.068;24.752;2023-12-28T00:32:50;100006.81;;;7.10;50.35
70343;BME280;57767;42.068;24.752;2023-12-28T00:33:51;100003.19;;;7.03;50.22
70343;BME280;57767;42.068;24.752;2023-12-28T00:34:53;100010.22;;;7.02;50.89
70343;BME280;57767;42.068;24.752;2023-12-28T00:35:55;100013.06;;;7.09;50.91
70343;BME280;57767;42.068;24.752;2023-12-28T00:36:56;100012.72;;;7.04;50.47
70343;BME280;57767;42.068;24.752;2023-12-28T00:37:58;100014.06;;;7.08;50.39
70343;BME280;57767;42.068;24.752;2023-12-28T00:39:00;100028.34;;;7.13;49.94
70343;BME280;57767;42.068;24.752;2023-12-28T00:40:03;100023.09;;;7.13;50.43
70343;BME280;57767;42.068;24.752;2023-12-28T00:41:04;100014.34;;;7.05;50.27
70343;BME280;57767;42.068;24.752;2023-12-28T00:42:06;100031.78;;;7.14;50.30
70343;BME280;57767;42.068;24.752;2023-12-28T00:43:08;100034.41;;;7.14;49.70
70343;BME280;57767;42.068;24.752;2023-12-28T00:44:09;100032.78;;;7.13;50.34
70343;BME280;57767;42.068;24.752;2023-12-28T00:45:11;100038.03;;;7.13;50.23
70343;BME280;57767;42.068;24.752;2023-12-28T00:46:13;100040.94;;;7.10;49.86
70343;BME280;57767;42.068;24.752;2023-12-28T00:47:14;100039.34;;;7.09;49.70
70343;BME280;57767;42.068;24.752;2023-12-28T00:48:16;100049.84;;;7.09;49.48
70343;BME280;57767;42.068;24.752;2023-12-28T00:49:18;100035.97;;;6.99;50.05
70343;BME280;57767;42.068;24.752;2023-12-28T00:50:20;100044.06;;;7.05;49.80
70343;BME280;57767;42.068;24.752;2023-12-28T00:51:21;100040.91;;;7.02;50.21
70343;BME280;57767;42.068;24.752;2023-12-28T00:52:23;100027.59;;;6.95;50.19
70343;BME280;57767;42.068;24.752;2023-12-28T00:53:26;100035.81;;;7.00;50.33
70343;BME280;57767;42.068;24.752;2023-12-28T00:54:28;100045.88;;;7.05;51.06
70343;BME280;57767;42.068;24.752;2023-12-28T00:55:30;100044.88;;;7.06;50.51
70343;BME280;57767;42.068;24.752;2023-12-28T00:56:32;100053.25;;;7.09;49.48
70343;BME280;57767;42.068;24.752;2023-12-28T00:57:34;100048.81;;;7.10;49.13
70343;BME280;57767;42.068;24.752;2023-12-28T00:58:39;100048.81;;;7.10;49.31
70343;BME280;57767;42.068;24.752;2023-12-28T00:59:40;100049.66;;;7.10;49.51
70343;BME280;57767;42.068;24.752;2023-12-28T01:00:42;100050.81;;;7.08;49.35
70343;BME280;57767;42.068;24.752;2023-12-28T01:01:44;100047.38;;;7.07;49.46
70343;BME280;57767;42.068;24.752;2023-12-28T01:02:46;100041.78;;;7.10;49.13
70343;BME280;57767;42.068;24.752;2023-12-28T01:03:50;100043.53;;;7.02;49.56
70343;BME280;57767;42.068;24.752;2023-12-28T01:04:52;100041.91;;;7.01;49.12
70343;BME280;57767;42.068;24.752;2023-12-28T01:05:54;100056.38;;;7.05;49.38
70343;BME280;57767;42.068;24.752;2023-12-28T01:06:55;100047.16;;;7.01;50.11
70343;BME280;57767;42.068;24.752;2023-12-28T01:07:57;100055.69;;;7.03;50.29
70343;BME280;57767;42.068;24.752;2023-12-28T01:08:59;100045.47;;;6.92;49.80
70343;BME280;57767;42.068;24.752;2023-12-28T01:10:01;100058.13;;;6.96;50.10
70343;BME280;57767;42.068;24.752;2023-12-28T01:11:03;100055.31;;;6.98;50.57
70343;BME280;57767;42.068;24.752;2023-12-28T01:12:05;100052.38;;;6.93;50.44
70343;BME280;57767;42.068;24.752;2023-12-28T01:13:06;100049.88;;;6.91;50.36
70343;BME280;57767;42.068;24.752;2023-12-28T01:14:08;100057.91;;;6.90;50.14
70343;BME280;57767;42.068;24.752;2023-12-28T01:15:10;100050.88;;;6.90;50.47
70343;BME280;57767;42.068;24.752;2023-12-28T01:16:14;100055.75;;;6.85;50.56
70343;BME280;57767;42.068;24.752;2023-12-28T01:17:16;100049.03;;;6.82;50.48
70343;BME280;57767;42.068;24.752;2023-12-28T01:18:18;100042.13;;;6.81;50.91
70343;BME280;57767;42.068;24.752;2023-12-28T01:19:19;100041.75;;;6.76;51.11
70343;BME280;57767;42.068;24.752;2023-12-28T01:20:21;100044.38;;;6.76;51.15
70343;BME280;57767;42.068;24.752;2023-12-28T01:21:23;100028.59;;;6.68;50.59
70343;BME280;57767;42.068;24.752;2023-12-28T01:22:26;100044.38;;;6.76;50.42
70343;BME280;57767;42.068;24.752;2023-12-28T01:23:27;100044.53;;;6.75;50.76
70343;BME280;57767;42.068;24.752;2023-12-28T01:24:29;100045.88;;;6.79;49.58
70343;BME280;57767;42.068;24.752;2023-12-28T01:25:31;100044.75;;;6.81;48.81
70343;BME280;57767;42.068;24.752;2023-12-28T01:26:32;100035.69;;;6.76;49.08
70343;BME280;57767;42.068;24.752;2023-12-28T01:27:36;100043.56;;;6.76;49.18
70343;BME280;57767;42.068;24.752;2023-12-28T01:28:37;100037.84;;;6.55;49.58
70343;BME280;57767;42.068;24.752;2023-12-28T01:29:40;100034.00;;;6.49;49.81
70343;BME280;57767;42.068;24.752;2023-12-28T01:30:42;100038.66;;;6.55;49.30
70343;BME280;57767;42.068;24.752;2023-12-28T01:31:45;100033.28;;;6.57;49.47
70343;BME280;57767;42.068;24.752;2023-12-28T01:32:47;100034.44;;;6.62;49.47
70343;BME280;57767;42.068;24.752;2023-12-28T01:33:49;100045.75;;;6.63;49.14
70343;BME280;57767;42.068;24.752;2023-12-28T01:34:50;100037.75;;;6.64;49.64
70343;BME280;57767;42.068;24.752;2023-12-28T01:35:52;100041.03;;;6.66;49.95
70343;BME280;57767;42.068;24.752;2023-12-28T01:36:54;100045.63;;;6.64;49.94
70343;BME280;57767;42.068;24.752;2023-12-28T01:37:55;100039.69;;;6.62;49.92
70343;BME280;57767;42.068;24.752;2023-12-28T01:38:59;100038.19;;;6.60;49.82
70343;BME280;57767;42.068;24.752;2023-12-28T01:40:01;100044.41;;;6.59;49.68
70343;BME280;57767;42.068;24.752;2023-12-28T01:41:03;100038.09;;;6.43;49.31
70343;BME280;57767;42.068;24.752;2023-12-28T01:42:05;100046.16;;;6.50;49.96
70343;BME280;57767;42.068;24.752;2023-12-28T01:43:06;100046.84;;;6.52;49.57
70343;BME280;57767;42.068;24.752;2023-12-28T01:44:08;100039.63;;;6.54;50.14
70343;BME280;57767;42.068;24.752;2023-12-28T01:45:10;100051.63;;;6.57;49.45
70343;BME280;57767;42.068;24.752;2023-12-28T01:46:16;100039.25;;;6.49;49.91
70343;BME280;57767;42.068;24.752;2023-12-28T01:47:18;100035.81;;;6.48;49.74
70343;BME280;57767;42.068;24.752;2023-12-28T01:48:20;100045.47;;;6.48;49.92
70343;BME280;57767;42.068;24.752;2023-12-28T01:49:23;100037.75;;;6.46;49.96
70343;BME280;57767;42.068;24.752;2023-12-28T01:50:26;100033.66;;;6.44;49.77
70343;BME280;57767;42.068;24.752;2023-12-28T01:51:28;100033.00;;;6.42;50.18
70343;BME280;57767;42.068;24.752;2023-12-28T01:52:30;100043.19;;;6.45;50.24
70343;BME280;57767;42.068;24.752;2023-12-28T01:53:32;100044.81;;;6.46;49.66
70343;BME280;57767;42.068;24.752;2023-12-28T01:54:34;100036.59;;;6.41;50.26
70343;BME280;57767;42.068;24.752;2023-12-28T01:55:36;100046.47;;;6.47;50.28
70343;BME280;57767;42.068;24.752;2023-12-28T01:56:38;100038.25;;;6.42;50.37
70343;BME280;57767;42.068;24.752;2023-12-28T01:57:40;100042.50;;;6.43;50.68
70343;BME280;57767;42.068;24.752;2023-12-28T01:58:43;100049.56;;;6.42;50.27
70343;BME280;57767;42.068;24.752;2023-12-28T01:59:45;100049.84;;;6.39;50.86
70343;BME280;57767;42.068;24.752;2023-12-28T02:00:47;100062.59;;;6.34;49.84
70343;BME280;57767;42.068;24.752;2023-12-28T02:01:50;100051.66;;;6.21;50.63
70343;BME280;57767;42.068;24.752;2023-12-28T02:02:52;100050.75;;;6.13;50.68
70343;BME280;57767;42.068;24.752;2023-12-28T02:03:54;100053.25;;;6.14;51.52
70343;BME280;57767;42.068;24.752;2023-12-28T02:04:57;100058.56;;;6.22;51.08
70343;BME280;57767;42.068;24.752;2023-12-28T02:06:00;100061.31;;;6.21;50.82
70343;BME280;57767;42.068;24.752;2023-12-28T02:07:02;100056.69;;;6.15;51.87
70343;BME280;57767;42.068;24.752;2023-12-28T02:08:05;100053.31;;;6.04;51.28
70343;BME280;57767;42.068;24.752;2023-12-28T02:09:06;100062.50;;;6.08;51.92
70343;BME280;57767;42.068;24.752;2023-12-28T02:10:08;100059.38;;;6.05;52.36
70343;BME280;57767;42.068;24.752;2023-12-28T02:11:10;100055.47;;;5.91;53.08
70343;BME280;57767;42.068;24.752;2023-12-28T02:12:12;100063.22;;;5.93;53.00
70343;BME280;57767;42.068;24.752;2023-12-28T02:13:14;100059.16;;;5.98;53.52
70343;BME280;57767;42.068;24.752;2023-12-28T02:14:15;100058.19;;;5.99;53.77
70343;BME280;57767;42.068;24.752;2023-12-28T02:15:17;100060.81;;;5.99;53.75
70343;BME280;57767;42.068;24.752;2023-12-28T02:16:25;100060.81;;;5.99;53.73
70343;BME280;57767;42.068;24.752;2023-12-28T02:17:36;100056.53;;;5.98;53.16
70343;BME280;57767;42.068;24.752;2023-12-28T02:18:50;100053.91;;;5.98;53.87
70343;BME280;57767;42.068;24.752;2023-12-28T02:19:54;100053.06;;;5.98;54.00
70343;BME280;57767;42.068;24.752;2023-12-28T02:20:58;100054.59;;;6.00;53.45
70343;BME280;57767;42.068;24.752;2023-12-28T02:22:00;100049.63;;;5.97;53.23
70343;BME280;57767;42.068;24.752;2023-12-28T02:23:02;100057.50;;;5.97;53.21
70343;BME280;57767;42.068;24.752;2023-12-28T02:24:04;100048.31;;;5.93;53.09
70343;BME280;57767;42.068;24.752;2023-12-28T02:25:09;100053.22;;;5.96;53.70
70343;BME280;57767;42.068;24.752;2023-12-28T02:26:12;100043.06;;;5.93;54.29
70343;BME280;57767;42.068;24.752;2023-12-28T02:27:14;100049.13;;;5.94;54.25
70343;BME280;57767;42.068;24.752;2023-12-28T02:28:16;100037.97;;;5.92;54.14
70343;BME280;57767;42.068;24.752;2023-12-28T02:29:18;100048.81;;;5.97;54.56
70343;BME280;57767;42.068;24.752;2023-12-28T02:30:21;100042.38;;;5.91;54.46
70343;BME280;57767;42.068;24.752;2023-12-28T02:31:36;100054.06;;;5.97;54.05
70343;BME280;57767;42.068;24.752;2023-12-28T02:34:05;100047.63;;;5.91;53.24
70343;BME280;57767;42.068;24.752;2023-12-28T02:35:23;100050.25;;;5.91;53.55
70343;BME280;57767;42.068;24.752;2023-12-28T02:36:26;100042.66;;;5.88;53.01
70343;BME280;57767;42.068;24.752;2023-12-28T02:37:30;100045.28;;;5.88;53.48
70343;BME280;57767;42.068;24.752;2023-12-28T02:38:36;100046.94;;;5.89;53.69
70343;BME280;57767;42.068;24.752;2023-12-28T02:39:38;100038.38;;;5.87;53.42
70343;BME280;57767;42.068;24.752;2023-12-28T02:40:42;100040.88;;;5.89;53.41
70343;BME280;57767;42.068;24.752;2023-12-28T02:41:47;100045.00;;;5.91;53.92
70343;BME280;57767;42.068;24.752;2023-12-28T02:42:49;100027.53;;;5.82;53.42
70343;BME280;57767;42.068;24.752;2023-12-28T02:43:50;100046.66;;;5.92;53.64
70343;BME280;57767;42.068;24.752;2023-12-28T02:44:52;100051.91;;;5.92;53.09
70343;BME280;57767;42.068;24.752;2023-12-28T02:45:54;100045.69;;;5.93;52.48
70343;BME280;57767;42.068;24.752;2023-12-28T02:46:56;100049.28;;;5.92;52.26
70343;BME280;57767;42.068;24.752;2023-12-28T02:47:58;100055.63;;;5.90;51.97
70343;BME280;57767;42.068;24.752;2023-12-28T02:49:00;100061.25;;;5.95;52.12
70343;BME280;57767;42.068;24.752;2023-12-28T02:50:01;100062.38;;;5.92;50.96
70343;BME280;57767;42.068;24.752;2023-12-28T02:51:03;100063.34;;;5.91;51.41
70343;BME280;57767;42.068;24.752;2023-12-28T02:52:05;100067.31;;;5.95;50.76
70343;BME280;57767;42.068;24.752;2023-12-28T02:53:07;100073.53;;;5.94;50.61
70343;BME280;57767;42.068;24.752;2023-12-28T02:54:08;100070.94;;;5.94;51.98
70343;BME280;57767;42.068;24.752;2023-12-28T02:55:10;100064.56;;;5.87;51.45
70343;BME280;57767;42.068;24.752;2023-12-28T02:56:11;100072.88;;;5.92;50.79
70343;BME280;57767;42.068;24.752;2023-12-28T02:57:13;100078.66;;;5.86;51.37
70343;BME280;57767;42.068;24.752;2023-12-28T02:58:19;100083.22;;;5.84;51.48
70343;BME280;57767;42.068;24.752;2023-12-28T02:59:21;100067.47;;;5.66;51.89
70343;BME280;57767;42.068;24.752;2023-12-28T03:00:22;100079.00;;;5.73;52.21
70343;BME280;57767;42.068;24.752;2023-12-28T03:01:24;100076.38;;;5.73;52.48
70343;BME280;57767;42.068;24.752;2023-12-28T03:02:26;100078.47;;;5.70;52.24
70343;BME280;57767;42.068;24.752;2023-12-28T03:03:27;100086.50;;;5.68;53.36
70343;BME280;57767;42.068;24.752;2023-12-28T03:04:29;100086.50;;;5.68;53.23
70343;BME280;57767;42.068;24.752;2023-12-28T03:05:31;100088.94;;;5.70;53.27
70343;BME280;57767;42.068;24.752;2023-12-28T03:06:33;100088.59;;;5.65;53.09
70343;BME280;57767;42.068;24.752;2023-12-28T03:07:35;100091.75;;;5.68;52.63
70343;BME280;57767;42.068;24.752;2023-12-28T03:08:37;100086.31;;;5.70;52.96
70343;BME280;57767;42.068;24.752;2023-12-28T03:09:38;100083.47;;;5.63;53.26
70343;BME280;57767;42.068;24.752;2023-12-28T03:10:42;100089.25;;;5.67;53.69
70343;BME280;57767;42.068;24.752;2023-12-28T03:11:44;100084.03;;;5.67;53.24
70343;BME280;57767;42.068;24.752;2023-12-28T03:12:45;100083.06;;;5.68;53.69
70343;BME280;57767;42.068;24.752;2023-12-28T03:13:47;100082.38;;;5.66;53.29
70343;BME280;57767;42.068;24.752;2023-12-28T03:14:50;100081.25;;;5.68;53.92
70343;BME280;57767;42.068;24.752;2023-12-28T03:15:51;100080.13;;;5.71;54.50
70343;BME280;57767;42.068;24.752;2023-12-28T03:16:53;100072.72;;;5.66;55.41
70343;BME280;57767;42.068;24.752;2023-12-28T03:17:55;100083.19;;;5.66;55.27
70343;BME280;57767;42.068;24.752;2023-12-28T03:18:57;100083.75;;;5.60;54.66
70343;BME280;57767;42.068;24.752;2023-12-28T03:19:59;100082.31;;;5.48;55.87
70343;BME280;57767;42.068;24.752;2023-12-28T03:21:01;100073.63;;;5.48;56.58
70343;BME280;57767;42.068;24.752;2023-12-28T03:22:03;100067.28;;;5.50;56.28
70343;BME280;57767;42.068;24.752;2023-12-28T03:23:04;100066.44;;;5.50;56.85
70343;BME280;57767;42.068;24.752;2023-12-28T03:24:06;100070.44;;;5.54;57.03
70343;BME280;57767;42.068;24.752;2023-12-28T03:25:08;100066.72;;;5.56;57.44
70343;BME280;57767;42.068;24.752;2023-12-28T03:26:09;100069.47;;;5.55;57.96
70343;BME280;57767;42.068;24.752;2023-12-28T03:27:11;100057.41;;;5.34;58.73
70343;BME280;57767;42.068;24.752;2023-12-28T03:28:13;100067.53;;;5.29;58.52
70343;BME280;57767;42.068;24.752;2023-12-28T03:29:14;100059.25;;;5.24;58.68
70343;BME280;57767;42.068;24.752;2023-12-28T03:30:16;100058.06;;;5.09;58.93
70343;BME280;57767;42.068;24.752;2023-12-28T03:31:18;100053.28;;;4.95;59.35
70343;BME280;57767;42.068;24.752;2023-12-28T03:32:20;100060.19;;;4.96;58.70
70343;BME280;57767;42.068;24.752;2023-12-28T03:33:21;100048.47;;;5.00;57.87
70343;BME280;57767;42.068;24.752;2023-12-28T03:34:23;100054.50;;;5.10;57.95
70343;BME280;57767;42.068;24.752;2023-12-28T03:35:25;100050.63;;;5.14;57.49
70343;BME280;57767;42.068;24.752;2023-12-28T03:36:27;100051.19;;;5.08;56.95
70343;BME280;57767;42.068;24.752;2023-12-28T03:37:28;100042.97;;;5.03;55.96
70343;BME280;57767;42.068;24.752;2023-12-28T03:38:30;100047.38;;;5.02;56.02
70343;BME280;57767;42.068;24.752;2023-12-28T03:39:31;100045.03;;;4.99;56.83
70343;BME280;57767;42.068;24.752;2023-12-28T03:40:34;100045.94;;;4.81;56.17
70343;BME280;57767;42.068;24.752;2023-12-28T03:41:36;100033.53;;;4.73;55.29
70343;BME280;57767;42.068;24.752;2023-12-28T03:42:37;100043.41;;;4.89;55.37
70343;BME280;57767;42.068;24.752;2023-12-28T03:43:40;100027.84;;;4.87;55.42
70343;BME280;57767;42.068;24.752;2023-12-28T03:44:41;100043.38;;;4.98;55.64
70343;BME280;57767;42.068;24.752;2023-12-28T03:45:43;100041.59;;;4.99;55.23
70343;BME280;57767;42.068;24.752;2023-12-28T03:46:44;100036.06;;;5.02;55.43
70343;BME280;57767;42.068;24.752;2023-12-28T03:47:46;100027.81;;;4.97;54.57
70343;BME280;57767;42.068;24.752;2023-12-28T03:48:48;100036.06;;;5.02;55.51
70343;BME280;57767;42.068;24.752;2023-12-28T03:49:50;100040.34;;;5.03;54.74
70343;BME280;57767;42.068;24.752;2023-12-28T03:50:51;100044.31;;;5.07;54.83
70343;BME280;57767;42.068;24.752;2023-12-28T03:51:53;100047.47;;;5.11;54.52
70343;BME280;57767;42.068;24.752;2023-12-28T03:52:55;100035.78;;;5.05;54.66
70343;BME280;57767;42.068;24.752;2023-12-28T03:53:57;100051.44;;;5.15;55.23
70343;BME280;57767;42.068;24.752;2023-12-28T03:54:58;100035.88;;;5.13;54.54
70343;BME280;57767;42.068;24.752;2023-12-28T03:56:00;100045.94;;;5.18;54.75
70343;BME280;57767;42.068;24.752;2023-12-28T03:57:02;100048.41;;;5.19;54.34
70343;BME280;57767;42.068;24.752;2023-12-28T03:58:04;100048.56;;;5.18;53.92
70343;BME280;57767;42.068;24.752;2023-12-28T03:59:05;100052.50;;;5.22;54.27
70343;BME280;57767;42.068;24.752;2023-12-28T04:00:08;100058.56;;;5.22;54.88
70343;BME280;57767;42.068;24.752;2023-12-28T04:01:10;100061.75;;;5.26;55.23
70343;BME280;57767;42.068;24.752;2023-12-28T04:02:12;100061.34;;;5.21;54.12
70343;BME280;57767;42.068;24.752;2023-12-28T04:03:13;100064.63;;;5.23;53.58
70343;BME280;57767;42.068;24.752;2023-12-28T04:04:15;100060.50;;;5.20;54.57
70343;BME280;57767;42.068;24.752;2023-12-28T04:05:17;100070.03;;;5.21;54.26
70343;BME280;57767;42.068;24.752;2023-12-28T04:06:19;100068.22;;;5.22;53.50
70343;BME280;57767;42.068;24.752;2023-12-28T04:07:21;100064.78;;;5.21;54.68
70343;BME280;57767;42.068;24.752;2023-12-28T04:08:22;100061.19;;;5.22;54.97
70343;BME280;57767;42.068;24.752;2023-12-28T04:09:24;100068.91;;;5.24;55.50
70343;BME280;57767;42.068;24.752;2023-12-28T04:10:31;100055.88;;;5.14;55.37
70343;BME280;57767;42.068;24.752;2023-12-28T04:11:33;100064.13;;;5.19;55.55
70343;BME280;57767;42.068;24.752;2023-12-28T04:12:35;100055.34;;;5.01;56.53
70343;BME280;57767;42.068;24.752;2023-12-28T04:13:38;100038.19;;;4.89;55.92
70343;BME280;57767;42.068;24.752;2023-12-28T04:14:40;100057.56;;;4.96;55.55
70343;BME280;57767;42.068;24.752;2023-12-28T04:15:42;100061.84;;;4.97;55.22
70343;BME280;57767;42.068;24.752;2023-12-28T04:16:47;100051.00;;;4.92;55.29
70343;BME280;57767;42.068;24.752;2023-12-28T04:17:48;100057.75;;;4.85;55.23
70343;BME280;57767;42.068;24.752;2023-12-28T04:18:50;100073.84;;;4.90;56.18
70343;BME280;57767;42.068;24.752;2023-12-28T04:19:52;100074.13;;;4.87;55.22
70343;BME280;57767;42.068;24.752;2023-12-28T04:20:53;100080.78;;;4.81;55.55
70343;BME280;57767;42.068;24.752;2023-12-28T04:21:55;100067.41;;;4.75;55.41
70343;BME280;57767;42.068;24.752;2023-12-28T04:22:57;100069.31;;;4.82;56.48
70343;BME280;57767;42.068;24.752;2023-12-28T04:23:59;100072.19;;;4.89;56.09
70343;BME280;57767;42.068;24.752;2023-12-28T04:25:00;100045.78;;;4.73;57.03
70343;BME280;57767;42.068;24.752;2023-12-28T04:26:02;100069.41;;;5.00;55.95
70343;BME280;57767;42.068;24.752;2023-12-28T04:27:04;100065.00;;;5.00;55.68
70343;BME280;57767;42.068;24.752;2023-12-28T04:28:06;100065.56;;;5.04;56.25
70343;BME280;57767;42.068;24.752;2023-12-28T04:29:08;100058.81;;;5.01;56.26
70343;BME280;57767;42.068;24.752;2023-12-28T04:30:12;100066.53;;;5.03;56.78
70343;BME280;57767;42.068;24.752;2023-12-28T04:31:14;100061.56;;;5.00;55.96
70343;BME280;57767;42.068;24.752;2023-12-28T04:32:16;100060.59;;;5.01;55.62
70343;BME280;57767;42.068;24.752;2023-12-28T04:33:18;100059.09;;;4.98;56.14
70343;BME280;57767;42.068;24.752;2023-12-28T04:34:20;100065.84;;;5.01;55.53
70343;BME280;57767;42.068;24.752;2023-12-28T04:35:22;100073.53;;;5.02;56.16
70343;BME280;57767;42.068;24.752;2023-12-28T04:36:24;100077.00;;;5.03;55.42
70343;BME280;57767;42.068;24.752;2023-12-28T04:37:25;100073.69;;;5.01;55.44
70343;BME280;57767;42.068;24.752;2023-12-28T04:38:28;100072.03;;;5.00;55.33
70343;BME280;57767;42.068;24.752;2023-12-28T04:39:29;100080.72;;;5.00;55.52
70343;BME280;57767;42.068;24.752;2023-12-28T04:40:31;100078.91;;;5.01;55.09
70343;BME280;57767;42.068;24.752;2023-12-28T04:41:35;100078.50;;;4.96;55.50
70343;BME280;57767;42.068;24.752;2023-12-28T04:42:36;100076.44;;;4.99;55.89
70343;BME280;57767;42.068;24.752;2023-12-28T04:43:38;100080.56;;;5.02;55.70
70343;BME280;57767;42.068;24.752;2023-12-28T04:44:40;100079.88;;;5.00;56.08
70343;BME280;57767;42.068;24.752;2023-12-28T04:45:42;100081.81;;;4.98;56.06
70343;BME280;57767;42.068;24.752;2023-12-28T04:46:44;100083.47;;;4.99;56.29
70343;BME280;57767;42.068;24.752;2023-12-28T04:47:46;100079.59;;;5.03;55.93
70343;BME280;57767;42.068;24.752;2023-12-28T04:48:48;100081.41;;;5.02;55.64
70343;BME280;57767;42.068;24.752;2023-12-28T04:49:50;100084.84;;;5.03;55.61
70343;BME280;57767;42.068;24.752;2023-12-28T04:50:52;100083.19;;;5.02;56.27
70343;BME280;57767;42.068;24.752;2023-12-28T04:51:54;100084.00;;;5.02;56.96
70343;BME280;57767;42.068;24.752;2023-12-28T04:52:56;100092.00;;;5.01;56.13
70343;BME280;57767;42.068;24.752;2023-12-28T04:53:58;100093.78;;;5.00;56.36
70343;BME280;57767;42.068;24.752;2023-12-28T04:55:00;100086.66;;;4.93;55.93
70343;BME280;57767;42.068;24.752;2023-12-28T04:56:01;100082.41;;;4.92;57.07
70343;BME280;57767;42.068;24.752;2023-12-28T04:57:03;100091.22;;;4.91;56.64
70343;BME280;57767;42.068;24.752;2023-12-28T04:58:05;100087.75;;;4.90;56.39
70343;BME280;57767;42.068;24.752;2023-12-28T04:59:06;100091.91;;;4.93;56.14
70343;BME280;57767;42.068;24.752;2023-12-28T05:00:08;100082.81;;;4.87;56.59
70343;BME280;57767;42.068;24.752;2023-12-28T05:01:10;100085.97;;;4.91;57.24
70343;BME280;57767;42.068;24.752;2023-12-28T05:02:12;100089.28;;;4.93;56.55
70343;BME280;57767;42.068;24.752;2023-12-28T05:03:13;100077.44;;;4.89;56.70
70343;BME280;57767;42.068;24.752;2023-12-28T05:04:16;100081.56;;;4.91;56.69
70343;BME280;57767;42.068;24.752;2023-12-28T05:05:18;100087.06;;;4.88;56.40
70343;BME280;57767;42.068;24.752;2023-12-28T05:06:20;100082.94;;;4.86;56.46
70343;BME280;57767;42.068;24.752;2023-12-28T05:07:22;100077.31;;;4.81;56.56
70343;BME280;57767;42.068;24.752;2023-12-28T05:08:23;100060.53;;;4.74;56.78
70343;BME280;57767;42.068;24.752;2023-12-28T05:09:25;100079.63;;;4.84;56.82
70343;BME280;57767;42.068;24.752;2023-12-28T05:10:26;100082.94;;;4.86;56.62
70343;BME280;57767;42.068;24.752;2023-12-28T05:11:28;100084.88;;;4.84;56.34
70343;BME280;57767;42.068;24.752;2023-12-28T05:12:30;100070.31;;;4.81;56.82
70343;BME280;57767;42.068;24.752;2023-12-28T05:13:44;100080.19;;;4.87;57.66
70343;BME280;57767;42.068;24.752;2023-12-28T05:14:45;100077.44;;;4.89;57.45
70343;BME280;57767;42.068;24.752;2023-12-28T05:15:47;100066.28;;;4.87;57.70
70343;BME280;57767;42.068;24.752;2023-12-28T05:16:49;100067.78;;;4.89;57.79
70343;BME280;57767;42.068;24.752;2023-12-28T05:17:51;100070.00;;;4.94;57.53
70343;BME280;57767;42.068;24.752;2023-12-28T05:18:52;100066.38;;;4.95;57.50
70343;BME280;57767;42.068;24.752;2023-12-28T05:19:54;100061.97;;;4.95;57.25
70343;BME280;57767;42.068;24.752;2023-12-28T05:20:57;100056.50;;;4.89;58.08
70343;BME280;57767;42.068;24.752;2023-12-28T05:21:59;100065.88;;;4.91;57.97
70343;BME280;57767;42.068;24.752;2023-12-28T05:23:04;100063.75;;;4.95;57.37
70343;BME280;57767;42.068;24.752;2023-12-28T05:24:06;100061.16;;;4.95;57.86
70343;BME280;57767;42.068;24.752;2023-12-28T05:25:08;100047.69;;;4.90;57.41
70343;BME280;57767;42.068;24.752;2023-12-28T05:26:10;100052.34;;;4.96;57.28
70343;BME280;57767;42.068;24.752;2023-12-28T05:27:12;100064.19;;;5.00;57.17